sensor_id;sensor_type;location;lat;lon;timestamp;temperature;humidity
5429;DHT22;2737;52.386;9.980;2022-11-20T00:01:29;-3.30;99.90
5429;DHT22;2737;52.386;9.980;2022-11-20T00:03:58;-3.30;99.90
5429;DHT22;2737;52.386;9.980;2022-11-20T00:06:26;-3.30;99.90
5429;DHT22;2737;52.386;9.980;2022-11-20T00:08:55;-3.30;99.90
5429;DHT22;2737;52.386;9.980;2022-11-20T00:11:24;-3.40;99.90
5429;DHT22;2737;52.386;9.980;2022-11-20T00:13:53;-3.40;99.90
5429;DHT22;2737;52.386;9.980;2022-11-20T00:16:21;-3.30;99.90
5429;DHT22;2737;52.386;9.980;2022-11-20T00:18:50;-3.40;99.90
5429;DHT22;2737;52.386;9.980;2022-11-20T00:21:19;-3.50;99.90
5429;DHT22;2737;52.386;9.980;2022-11-20T00:23:47;-3.60;99.90
5429;DHT22;2737;52.386;9.980;2022-11-20T00:26:16;-3.60;99.90
5429;DHT22;2737;52.386;9.980;2022-11-20T00:28:48;-3.50;99.90
5429;DHT22;2737;52.386;9.980;2022-11-20T00:31:16;-3.50;99.90
5429;DHT22;2737;52.386;9.980;2022-11-20T00:33:44;-3.40;99.90
5429;DHT22;2737;52.386;9.980;2022-11-20T00:36:14;-3.40;99.90
5429;DHT22;2737;52.386;9.980;2022-11-20T00:38:41;-3.40;99.90
5429;DHT22;2737;52.386;9.980;2022-11-20T00:41:10;-3.40;99.90
5429;DHT22;2737;52.386;9.980;2022-11-20T00:43:38;-3.40;99.90
5429;DHT22;2737;52.386;9.980;2022-11-20T00:46:06;-3.40;99.90
5429;DHT22;2737;52.386;9.980;2022-11-20T00:48:33;-3.50;99.90
5429;DHT22;2737;52.386;9.980;2022-11-20T00:51:01;-3.50;99.90
5429;DHT22;2737;52.386;9.980;2022-11-20T00:53:30;-3.50;99.90
5429;DHT22;2737;52.386;9.980;2022-11-20T00:55:59;-3.50;99.90
5429;DHT22;2737;52.386;9.980;2022-11-20T00:58:30;-3.40;99.90
5429;DHT22;2737;52.386;9.980;2022-11-20T01:01:00;-3.40;99.90
5429;DHT22;2737;52.386;9.980;2022-11-20T01:03:27;-3.40;99.90
5429;DHT22;2737;52.386;9.980;2022-11-20T01:05:54;-3.40;99.90
5429;DHT22;2737;52.386;9.980;2022-11-20T01:08:31;-3.50;99.90
5429;DHT22;2737;52.386;9.980;2022-11-20T01:11:02;-3.40;99.90
5429;DHT22;2737;52.386;9.980;2022-11-20T01:13:30;-3.40;99.90
5429;DHT22;2737;52.386;9.980;2022-11-20T01:16:10;-3.40;99.90
5429;DHT22;2737;52.386;9.980;2022-11-20T01:18:39;-3.40;99.90
5429;DHT22;2737;52.386;9.980;2022-11-20T01:21:08;-3.40;99.90
5429;DHT22;2737;52.386;9.980;2022-11-20T01:23:38;-3.40;99.90
5429;DHT22;2737;52.386;9.980;2022-11-20T01:26:07;-3.40;99.90
5429;DHT22;2737;52.386;9.980;2022-11-20T01:28:35;-3.40;99.90
5429;DHT22;2737;52.386;9.980;2022-11-20T01:31:10;-3.30;99.90
5429;DHT22;2737;52.386;9.980;2022-11-20T01:33:39;-3.40;99.90
5429;DHT22;2737;52.386;9.980;2022-11-20T01:36:07;-3.50;99.90
5429;DHT22;2737;52.386;9.980;2022-11-20T01:38:34;-3.50;99.90
5429;DHT22;2737;52.386;9.980;2022-11-20T01:41:03;-3.40;99.90
5429;DHT22;2737;52.386;9.980;2022-11-20T01:43:31;-3.50;99.90
5429;DHT22;2737;52.386;9.980;2022-11-20T01:46:14;-3.40;99.90
5429;DHT22;2737;52.386;9.980;2022-11-20T01:48:46;-3.40;99.90
5429;DHT22;2737;52.386;9.980;2022-11-20T01:51:21;-3.40;99.90
5429;DHT22;2737;52.386;9.980;2022-11-20T01:53:50;-3.30;99.90
5429;DHT22;2737;52.386;9.980;2022-11-20T01:56:19;-3.30;99.90
5429;DHT22;2737;52.386;9.980;2022-11-20T01:58:51;-3.40;99.90
5429;DHT22;2737;52.386;9.980;2022-11-20T02:01:20;-3.40;99.90
5429;DHT22;2737;52.386;9.980;2022-11-20T02:03:48;-3.40;99.90
5429;DHT22;2737;52.386;9.980;2022-11-20T02:06:19;-3.40;99.90
5429;DHT22;2737;52.386;9.980;2022-11-20T02:08:48;-3.40;99.90
5429;DHT22;2737;52.386;9.980;2022-11-20T02:11:15;-3.40;99.90
5429;DHT22;2737;52.386;9.980;2022-11-20T02:13:44;-3.30;99.90
5429;DHT22;2737;52.386;9.980;2022-11-20T02:16:14;-3.30;99.90
5429;DHT22;2737;52.386;9.980;2022-11-20T02:18:43;-3.20;99.90
5429;DHT22;2737;52.386;9.980;2022-11-20T02:21:18;-3.30;99.90
5429;DHT22;2737;52.386;9.980;2022-11-20T02:24:11;-3.20;99.90
5429;DHT22;2737;52.386;9.980;2022-11-20T02:26:43;-3.20;99.90
5429;DHT22;2737;52.386;9.980;2022-11-20T02:29:12;-3.30;99.90
5429;DHT22;2737;52.386;9.980;2022-11-20T02:31:42;-3.30;99.90
5429;DHT22;2737;52.386;9.980;2022-11-20T02:34:10;-3.20;99.90
5429;DHT22;2737;52.386;9.980;2022-11-20T02:36:38;-3.10;99.90
5429;DHT22;2737;52.386;9.980;2022-11-20T02:39:06;-3.10;99.90
5429;DHT22;2737;52.386;9.980;2022-11-20T02:41:36;-3.10;99.90
5429;DHT22;2737;52.386;9.980;2022-11-20T02:44:04;-3.10;99.90
5429;DHT22;2737;52.386;9.980;2022-11-20T02:46:32;-3.10;99.90
5429;DHT22;2737;52.386;9.980;2022-11-20T02:49:00;-3.00;99.90
5429;DHT22;2737;52.386;9.980;2022-11-20T02:51:27;-3.00;99.90
5429;DHT22;2737;52.386;9.980;2022-11-20T02:53:54;-3.10;99.90
5429;DHT22;2737;52.386;9.980;2022-11-20T02:56:21;-3.20;99.90
5429;DHT22;2737;52.386;9.980;2022-11-20T02:58:49;-3.10;99.90
5429;DHT22;2737;52.386;9.980;2022-11-20T03:01:16;-3.00;99.90
5429;DHT22;2737;52.386;9.980;2022-11-20T03:03:43;-3.00;99.90
5429;DHT22;2737;52.386;9.980;2022-11-20T03:06:10;-3.10;99.90
5429;DHT22;2737;52.386;9.980;2022-11-20T03:08:37;-3.00;99.90
5429;DHT22;2737;52.386;9.980;2022-11-20T03:11:06;-3.10;99.90
5429;DHT22;2737;52.386;9.980;2022-11-20T03:13:34;-3.20;99.90
5429;DHT22;2737;52.386;9.980;2022-11-20T03:16:11;-3.20;99.90
5429;DHT22;2737;52.386;9.980;2022-11-20T03:18:39;-3.20;99.90
5429;DHT22;2737;52.386;9.980;2022-11-20T03:21:07;-3.20;99.90
5429;DHT22;2737;52.386;9.980;2022-11-20T03:23:35;-3.10;99.90
5429;DHT22;2737;52.386;9.980;2022-11-20T03:26:13;-3.10;99.90
5429;DHT22;2737;52.386;9.980;2022-11-20T03:28:41;-3.10;99.90
5429;DHT22;2737;52.386;9.980;2022-11-20T03:31:12;-3.10;99.90
5429;DHT22;2737;52.386;9.980;2022-11-20T03:33:39;-3.10;99.90
5429;DHT22;2737;52.386;9.980;2022-11-20T03:36:08;-3.10;99.90
5429;DHT22;2737;52.386;9.980;2022-11-20T03:38:36;-3.10;99.90
5429;DHT22;2737;52.386;9.980;2022-11-20T03:41:06;-3.10;99.90
5429;DHT22;2737;52.386;9.980;2022-11-20T03:43:34;-3.00;99.90
5429;DHT22;2737;52.386;9.980;2022-11-20T03:46:01;-2.90;99.90
5429;DHT22;2737;52.386;9.980;2022-11-20T03:48:31;-2.90;99.90
5429;DHT22;2737;52.386;9.980;2022-11-20T03:51:08;-3.00;99.90
5429;DHT22;2737;52.386;9.980;2022-11-20T03:53:35;-3.00;99.90
5429;DHT22;2737;52.386;9.980;2022-11-20T03:56:02;-2.90;99.90
5429;DHT22;2737;52.386;9.980;2022-11-20T03:58:30;-2.90;99.90
5429;DHT22;2737;52.386;9.980;2022-11-20T04:00:57;-2.90;99.90
5429;DHT22;2737;52.386;9.980;2022-11-20T04:03:24;-2.80;99.90
5429;DHT22;2737;52.386;9.980;2022-11-20T04:05:53;-2.80;99.90
5429;DHT22;2737;52.386;9.980;2022-11-20T04:08:20;-2.80;99.90
5429;DHT22;2737;52.386;9.980;2022-11-20T04:10:47;-2.80;99.90
5429;DHT22;2737;52.386;9.980;2022-11-20T04:13:14;-2.80;99.90
5429;DHT22;2737;52.386;9.980;2022-11-20T04:15:41;-2.80;99.90
5429;DHT22;2737;52.386;9.980;2022-11-20T04:18:08;-2.80;99.90
5429;DHT22;2737;52.386;9.980;2022-11-20T04:20:35;-2.70;99.90
5429;DHT22;2737;52.386;9.980;2022-11-20T04:23:04;-2.70;99.90
5429;DHT22;2737;52.386;9.980;2022-11-20T04:25:31;-2.60;99.90
5429;DHT22;2737;52.386;9.980;2022-11-20T04:27:58;-2.70;99.90
5429;DHT22;2737;52.386;9.980;2022-11-20T04:30:25;-2.60;99.90
5429;DHT22;2737;52.386;9.980;2022-11-20T04:32:52;-2.60;99.90
5429;DHT22;2737;52.386;9.980;2022-11-20T04:35:19;-2.60;99.90
5429;DHT22;2737;52.386;9.980;2022-11-20T04:37:46;-2.50;99.90
5429;DHT22;2737;52.386;9.980;2022-11-20T04:40:14;-2.50;99.90
5429;DHT22;2737;52.386;9.980;2022-11-20T04:42:41;-2.50;99.90
5429;DHT22;2737;52.386;9.980;2022-11-20T04:45:09;-2.50;99.90
5429;DHT22;2737;52.386;9.980;2022-11-20T04:47:36;-2.50;99.90
5429;DHT22;2737;52.386;9.980;2022-11-20T04:50:03;-2.50;99.90
5429;DHT22;2737;52.386;9.980;2022-11-20T04:52:30;-2.50;99.90
5429;DHT22;2737;52.386;9.980;2022-11-20T04:54:57;-2.50;99.90
5429;DHT22;2737;52.386;9.980;2022-11-20T04:57:26;-2.50;99.90
5429;DHT22;2737;52.386;9.980;2022-11-20T04:59:53;-2.50;99.90
5429;DHT22;2737;52.386;9.980;2022-11-20T05:02:20;-2.50;99.90
5429;DHT22;2737;52.386;9.980;2022-11-20T05:04:47;-2.50;99.90
5429;DHT22;2737;52.386;9.980;2022-11-20T05:07:15;-2.60;99.90
5429;DHT22;2737;52.386;9.980;2022-11-20T05:09:42;-2.50;99.90
5429;DHT22;2737;52.386;9.980;2022-11-20T05:12:09;-2.60;99.90
5429;DHT22;2737;52.386;9.980;2022-11-20T05:14:38;-2.60;99.90
5429;DHT22;2737;52.386;9.980;2022-11-20T05:17:05;-2.60;99.90
5429;DHT22;2737;52.386;9.980;2022-11-20T05:19:32;-2.60;99.90
5429;DHT22;2737;52.386;9.980;2022-11-20T05:21:59;-2.60;99.90
5429;DHT22;2737;52.386;9.980;2022-11-20T05:24:26;-2.60;99.90
5429;DHT22;2737;52.386;9.980;2022-11-20T05:26:53;-2.60;99.90
5429;DHT22;2737;52.386;9.980;2022-11-20T05:29:20;-2.60;99.90
5429;DHT22;2737;52.386;9.980;2022-11-20T05:31:48;-2.60;99.90
5429;DHT22;2737;52.386;9.980;2022-11-20T05:34:15;-2.70;99.90
5429;DHT22;2737;52.386;9.980;2022-11-20T05:36:42;-2.60;99.90
5429;DHT22;2737;52.386;9.980;2022-11-20T05:39:09;-2.60;99.90
5429;DHT22;2737;52.386;9.980;2022-11-20T05:41:36;-2.60;99.90
5429;DHT22;2737;52.386;9.980;2022-11-20T05:44:04;-2.50;99.90
5429;DHT22;2737;52.386;9.980;2022-11-20T05:46:31;-2.50;99.90
5429;DHT22;2737;52.386;9.980;2022-11-20T05:48:59;-2.50;99.90
5429;DHT22;2737;52.386;9.980;2022-11-20T05:51:26;-2.50;99.90
5429;DHT22;2737;52.386;9.980;2022-11-20T05:53:55;-2.50;99.90
5429;DHT22;2737;52.386;9.980;2022-11-20T05:56:22;-2.50;99.90
5429;DHT22;2737;52.386;9.980;2022-11-20T05:58:49;-2.40;99.90
5429;DHT22;2737;52.386;9.980;2022-11-20T06:01:21;-2.40;99.90
5429;DHT22;2737;52.386;9.980;2022-11-20T06:03:49;-2.40;99.90
5429;DHT22;2737;52.386;9.980;2022-11-20T06:06:19;-2.40;99.90
5429;DHT22;2737;52.386;9.980;2022-11-20T06:08:46;-2.30;99.90
5429;DHT22;2737;52.386;9.980;2022-11-20T06:11:14;-2.30;99.90
5429;DHT22;2737;52.386;9.980;2022-11-20T06:13:41;-2.30;99.90
5429;DHT22;2737;52.386;9.980;2022-11-20T06:16:10;-2.30;99.90
5429;DHT22;2737;52.386;9.980;2022-11-20T06:18:38;-2.30;99.90
5429;DHT22;2737;52.386;9.980;2022-11-20T06:21:07;-2.20;99.90
5429;DHT22;2737;52.386;9.980;2022-11-20T06:23:35;-2.20;99.90
5429;DHT22;2737;52.386;9.980;2022-11-20T06:26:04;-2.20;99.90
5429;DHT22;2737;52.386;9.980;2022-11-20T06:28:32;-2.20;99.90
5429;DHT22;2737;52.386;9.980;2022-11-20T06:30:59;-2.20;99.90
5429;DHT22;2737;52.386;9.980;2022-11-20T06:33:26;-2.20;99.90
5429;DHT22;2737;52.386;9.980;2022-11-20T06:35:56;-2.20;99.90
5429;DHT22;2737;52.386;9.980;2022-11-20T06:38:24;-2.20;99.90
5429;DHT22;2737;52.386;9.980;2022-11-20T06:40:52;-2.20;99.90
5429;DHT22;2737;52.386;9.980;2022-11-20T06:43:20;-2.10;99.90
5429;DHT22;2737;52.386;9.980;2022-11-20T06:45:51;-2.10;99.90
5429;DHT22;2737;52.386;9.980;2022-11-20T06:48:18;-2.10;99.90
5429;DHT22;2737;52.386;9.980;2022-11-20T06:50:46;-2.10;99.90
5429;DHT22;2737;52.386;9.980;2022-11-20T06:53:13;-2.10;99.90
5429;DHT22;2737;52.386;9.980;2022-11-20T06:55:42;-2.10;99.90
5429;DHT22;2737;52.386;9.980;2022-11-20T06:58:11;-2.10;99.90
5429;DHT22;2737;52.386;9.980;2022-11-20T07:00:39;-2.10;99.90
5429;DHT22;2737;52.386;9.980;2022-11-20T07:03:07;-2.10;99.90
5429;DHT22;2737;52.386;9.980;2022-11-20T07:05:35;-2.00;99.90
5429;DHT22;2737;52.386;9.980;2022-11-20T07:08:02;-2.00;99.90
5429;DHT22;2737;52.386;9.980;2022-11-20T07:10:30;-2.00;99.90
5429;DHT22;2737;52.386;9.980;2022-11-20T07:12:57;-2.00;99.90
5429;DHT22;2737;52.386;9.980;2022-11-20T07:15:26;-2.00;99.90
5429;DHT22;2737;52.386;9.980;2022-11-20T07:17:53;-2.00;99.90
5429;DHT22;2737;52.386;9.980;2022-11-20T07:20:20;-2.00;99.90
5429;DHT22;2737;52.386;9.980;2022-11-20T07:22:53;-2.00;99.90
5429;DHT22;2737;52.386;9.980;2022-11-20T07:25:21;-1.90;99.90
5429;DHT22;2737;52.386;9.980;2022-11-20T07:27:48;-1.90;99.90
5429;DHT22;2737;52.386;9.980;2022-11-20T07:30:15;-1.90;99.90
5429;DHT22;2737;52.386;9.980;2022-11-20T07:32:46;-1.90;99.90
5429;DHT22;2737;52.386;9.980;2022-11-20T07:35:13;-2.00;99.90
5429;DHT22;2737;52.386;9.980;2022-11-20T07:37:40;-1.90;99.90
5429;DHT22;2737;52.386;9.980;2022-11-20T07:40:08;-2.00;99.90
5429;DHT22;2737;52.386;9.980;2022-11-20T07:42:35;-2.00;99.90
5429;DHT22;2737;52.386;9.980;2022-11-20T07:45:02;-2.00;99.90
5429;DHT22;2737;52.386;9.980;2022-11-20T07:47:33;-2.00;99.90
5429;DHT22;2737;52.386;9.980;2022-11-20T07:50:02;-2.00;99.90
5429;DHT22;2737;52.386;9.980;2022-11-20T07:52:30;-1.90;99.90
5429;DHT22;2737;52.386;9.980;2022-11-20T07:54:57;-1.90;99.90
5429;DHT22;2737;52.386;9.980;2022-11-20T07:57:24;-1.90;99.90
5429;DHT22;2737;52.386;9.980;2022-11-20T07:59:51;-2.00;99.90
5429;DHT22;2737;52.386;9.980;2022-11-20T08:02:18;-2.00;99.90
5429;DHT22;2737;52.386;9.980;2022-11-20T08:04:45;-2.00;99.90
5429;DHT22;2737;52.386;9.980;2022-11-20T08:07:13;-1.90;99.90
5429;DHT22;2737;52.386;9.980;2022-11-20T08:09:40;-1.90;99.90
5429;DHT22;2737;52.386;9.980;2022-11-20T08:12:07;-1.90;99.90
5429;DHT22;2737;52.386;9.980;2022-11-20T08:14:52;-1.90;99.90
5429;DHT22;2737;52.386;9.980;2022-11-20T08:17:21;-1.90;99.90
5429;DHT22;2737;52.386;9.980;2022-11-20T08:19:48;-1.80;99.90
5429;DHT22;2737;52.386;9.980;2022-11-20T08:22:16;-1.90;99.90
5429;DHT22;2737;52.386;9.980;2022-11-20T08:24:44;-1.80;99.90
5429;DHT22;2737;52.386;9.980;2022-11-20T08:27:11;-1.70;99.90
5429;DHT22;2737;52.386;9.980;2022-11-20T08:29:38;-1.60;99.90
5429;DHT22;2737;52.386;9.980;2022-11-20T08:32:05;-1.50;99.90
5429;DHT22;2737;52.386;9.980;2022-11-20T08:34:32;-1.50;99.90
5429;DHT22;2737;52.386;9.980;2022-11-20T08:36:59;-1.50;99.90
5429;DHT22;2737;52.386;9.980;2022-11-20T08:39:27;-1.60;99.90
5429;DHT22;2737;52.386;9.980;2022-11-20T08:41:54;-1.50;99.90
5429;DHT22;2737;52.386;9.980;2022-11-20T08:44:21;-1.40;99.90
5429;DHT22;2737;52.386;9.980;2022-11-20T08:46:48;-1.40;99.90
5429;DHT22;2737;52.386;9.980;2022-11-20T08:49:16;-1.40;99.90
5429;DHT22;2737;52.386;9.980;2022-11-20T08:51:43;-1.40;99.90
5429;DHT22;2737;52.386;9.980;2022-11-20T08:54:10;-1.40;99.90
5429;DHT22;2737;52.386;9.980;2022-11-20T08:56:39;-1.40;99.90
5429;DHT22;2737;52.386;9.980;2022-11-20T08:59:06;-1.30;99.90
5429;DHT22;2737;52.386;9.980;2022-11-20T09:01:33;-1.40;99.90
5429;DHT22;2737;52.386;9.980;2022-11-20T09:04:00;-1.40;99.90
5429;DHT22;2737;52.386;9.980;2022-11-20T09:06:29;-1.40;99.90
5429;DHT22;2737;52.386;9.980;2022-11-20T09:08:56;-1.40;99.90
5429;DHT22;2737;52.386;9.980;2022-11-20T09:11:23;-1.30;99.90
5429;DHT22;2737;52.386;9.980;2022-11-20T09:13:52;-1.30;99.90
5429;DHT22;2737;52.386;9.980;2022-11-20T09:16:19;-1.30;99.90
5429;DHT22;2737;52.386;9.980;2022-11-20T09:18:46;-1.20;99.90
5429;DHT22;2737;52.386;9.980;2022-11-20T09:21:13;-1.20;99.90
5429;DHT22;2737;52.386;9.980;2022-11-20T09:23:40;-1.20;99.90
5429;DHT22;2737;52.386;9.980;2022-11-20T09:26:09;-1.20;99.90
5429;DHT22;2737;52.386;9.980;2022-11-20T09:28:37;-1.20;99.90
5429;DHT22;2737;52.386;9.980;2022-11-20T09:31:06;-1.10;99.90
5429;DHT22;2737;52.386;9.980;2022-11-20T09:33:34;-1.00;99.90
5429;DHT22;2737;52.386;9.980;2022-11-20T09:36:01;-0.90;99.90
5429;DHT22;2737;52.386;9.980;2022-11-20T09:38:28;-0.80;99.90
5429;DHT22;2737;52.386;9.980;2022-11-20T09:40:58;-0.90;99.90
5429;DHT22;2737;52.386;9.980;2022-11-20T09:43:37;-0.90;99.90
5429;DHT22;2737;52.386;9.980;2022-11-20T09:46:16;-0.90;99.90
5429;DHT22;2737;52.386;9.980;2022-11-20T09:49:03;-0.80;99.90
5429;DHT22;2737;52.386;9.980;2022-11-20T09:51:39;-0.80;99.90
5429;DHT22;2737;52.386;9.980;2022-11-20T09:54:15;-0.70;99.90
5429;DHT22;2737;52.386;9.980;2022-11-20T09:56:44;-0.70;99.90
5429;DHT22;2737;52.386;9.980;2022-11-20T09:59:28;-0.60;99.90
5429;DHT22;2737;52.386;9.980;2022-11-20T10:01:58;-0.60;99.90
5429;DHT22;2737;52.386;9.980;2022-11-20T10:04:26;-0.50;99.90
5429;DHT22;2737;52.386;9.980;2022-11-20T10:07:02;-0.40;99.90
5429;DHT22;2737;52.386;9.980;2022-11-20T10:09:32;-0.40;99.90
5429;DHT22;2737;52.386;9.980;2022-11-20T10:12:09;-0.40;99.90
5429;DHT22;2737;52.386;9.980;2022-11-20T10:14:50;-0.40;99.90
5429;DHT22;2737;52.386;9.980;2022-11-20T10:17:30;-0.40;99.90
5429;DHT22;2737;52.386;9.980;2022-11-20T10:20:15;-0.30;99.90
5429;DHT22;2737;52.386;9.980;2022-11-20T10:22:56;-0.30;99.90
5429;DHT22;2737;52.386;9.980;2022-11-20T10:25:33;-0.20;99.90
5429;DHT22;2737;52.386;9.980;2022-11-20T10:28:23;-0.30;99.90
5429;DHT22;2737;52.386;9.980;2022-11-20T10:30:59;-0.20;99.90
5429;DHT22;2737;52.386;9.980;2022-11-20T10:33:31;-0.20;99.90
5429;DHT22;2737;52.386;9.980;2022-11-20T10:36:05;-0.20;99.90
5429;DHT22;2737;52.386;9.980;2022-11-20T10:38:37;-0.10;99.90
5429;DHT22;2737;52.386;9.980;2022-11-20T10:41:06;-0.10;99.90
5429;DHT22;2737;52.386;9.980;2022-11-20T10:43:56;-0.10;99.90
5429;DHT22;2737;52.386;9.980;2022-11-20T10:46:25;-0.10;99.90
5429;DHT22;2737;52.386;9.980;2022-11-20T10:49:15;0.00;99.90
5429;DHT22;2737;52.386;9.980;2022-11-20T10:51:55;0.00;99.90
5429;DHT22;2737;52.386;9.980;2022-11-20T10:54:33;0.00;99.90
5429;DHT22;2737;52.386;9.980;2022-11-20T10:57:10;0.10;99.90
5429;DHT22;2737;52.386;9.980;2022-11-20T11:00:00;0.10;99.90
5429;DHT22;2737;52.386;9.980;2022-11-20T11:02:40;0.10;99.90
5429;DHT22;2737;52.386;9.980;2022-11-20T11:05:21;0.20;99.90
5429;DHT22;2737;52.386;9.980;2022-11-20T11:07:50;0.20;99.90
5429;DHT22;2737;52.386;9.980;2022-11-20T11:10:23;0.30;99.90
5429;DHT22;2737;52.386;9.980;2022-11-20T11:12:51;0.40;99.90
5429;DHT22;2737;52.386;9.980;2022-11-20T11:15:28;0.40;99.90
5429;DHT22;2737;52.386;9.980;2022-11-20T11:17:55;0.50;99.90
5429;DHT22;2737;52.386;9.980;2022-11-20T11:20:25;0.50;99.90
5429;DHT22;2737;52.386;9.980;2022-11-20T11:22:53;0.50;99.90
5429;DHT22;2737;52.386;9.980;2022-11-20T11:25:27;0.50;99.90
5429;DHT22;2737;52.386;9.980;2022-11-20T11:27:57;0.60;99.90
5429;DHT22;2737;52.386;9.980;2022-11-20T11:30:26;0.70;99.90
5429;DHT22;2737;52.386;9.980;2022-11-20T11:33:06;0.70;99.90
5429;DHT22;2737;52.386;9.980;2022-11-20T11:35:44;0.70;99.90
5429;DHT22;2737;52.386;9.980;2022-11-20T11:38:14;0.80;99.90
5429;DHT22;2737;52.386;9.980;2022-11-20T11:40:42;1.00;99.90
5429;DHT22;2737;52.386;9.980;2022-11-20T11:43:18;1.10;99.90
5429;DHT22;2737;52.386;9.980;2022-11-20T11:46:08;1.10;99.90
5429;DHT22;2737;52.386;9.980;2022-11-20T11:48:41;1.10;99.90
5429;DHT22;2737;52.386;9.980;2022-11-20T11:51:10;1.20;99.90
5429;DHT22;2737;52.386;9.980;2022-11-20T11:53:41;1.30;99.90
5429;DHT22;2737;52.386;9.980;2022-11-20T11:56:10;1.30;99.90
5429;DHT22;2737;52.386;9.980;2022-11-20T11:58:45;1.30;99.90
5429;DHT22;2737;52.386;9.980;2022-11-20T12:01:24;1.40;99.90
5429;DHT22;2737;52.386;9.980;2022-11-20T12:04:02;1.40;99.90
5429;DHT22;2737;52.386;9.980;2022-11-20T12:06:33;1.50;99.90
5429;DHT22;2737;52.386;9.980;2022-11-20T12:09:03;1.40;99.90
5429;DHT22;2737;52.386;9.980;2022-11-20T12:11:34;1.40;99.90
5429;DHT22;2737;52.386;9.980;2022-11-20T12:14:11;1.50;99.90
5429;DHT22;2737;52.386;9.980;2022-11-20T12:16:39;1.50;99.90
5429;DHT22;2737;52.386;9.980;2022-11-20T12:19:09;1.60;99.90
5429;DHT22;2737;52.386;9.980;2022-11-20T12:21:48;1.60;99.90
5429;DHT22;2737;52.386;9.980;2022-11-20T12:24:34;1.50;99.90
5429;DHT22;2737;52.386;9.980;2022-11-20T12:30:00;1.40;99.90
5429;DHT22;2737;52.386;9.980;2022-11-20T12:32:51;1.40;99.90
5429;DHT22;2737;52.386;9.980;2022-11-20T12:35:34;1.40;99.90
5429;DHT22;2737;52.386;9.980;2022-11-20T12:38:29;1.40;99.90
5429;DHT22;2737;52.386;9.980;2022-11-20T12:41:06;1.40;99.90
5429;DHT22;2737;52.386;9.980;2022-11-20T12:43:39;1.30;99.90
5429;DHT22;2737;52.386;9.980;2022-11-20T12:46:31;1.30;99.90
5429;DHT22;2737;52.386;9.980;2022-11-20T12:49:20;1.30;99.90
5429;DHT22;2737;52.386;9.980;2022-11-20T12:52:20;1.30;99.90
5429;DHT22;2737;52.386;9.980;2022-11-20T12:55:16;1.20;99.90
5429;DHT22;2737;52.386;9.980;2022-11-20T12:57:54;1.20;99.90
5429;DHT22;2737;52.386;9.980;2022-11-20T13:00:24;1.30;99.90
5429;DHT22;2737;52.386;9.980;2022-11-20T13:05:59;1.10;99.90
5429;DHT22;2737;52.386;9.980;2022-11-20T13:08:34;1.10;99.90
5429;DHT22;2737;52.386;9.980;2022-11-20T13:11:08;1.10;99.90
5429;DHT22;2737;52.386;9.980;2022-11-20T13:13:48;1.20;99.90
5429;DHT22;2737;52.386;9.980;2022-11-20T13:16:27;1.20;99.90
5429;DHT22;2737;52.386;9.980;2022-11-20T13:18:56;1.20;99.90
5429;DHT22;2737;52.386;9.980;2022-11-20T13:21:36;1.20;99.90
5429;DHT22;2737;52.386;9.980;2022-11-20T13:24:04;1.20;99.90
5429;DHT22;2737;52.386;9.980;2022-11-20T13:26:33;1.30;99.90
5429;DHT22;2737;52.386;9.980;2022-11-20T13:29:07;1.30;99.90
5429;DHT22;2737;52.386;9.980;2022-11-20T13:31:37;1.30;99.90
5429;DHT22;2737;52.386;9.980;2022-11-20T13:34:09;1.30;99.90
5429;DHT22;2737;52.386;9.980;2022-11-20T13:36:49;1.30;99.90
5429;DHT22;2737;52.386;9.980;2022-11-20T13:39:24;1.20;99.90
5429;DHT22;2737;52.386;9.980;2022-11-20T13:41:56;1.30;99.90
5429;DHT22;2737;52.386;9.980;2022-11-20T13:44:28;1.30;99.90
5429;DHT22;2737;52.386;9.980;2022-11-20T13:46:56;1.30;99.90
5429;DHT22;2737;52.386;9.980;2022-11-20T13:49:26;1.30;99.90
5429;DHT22;2737;52.386;9.980;2022-11-20T13:52:03;1.40;99.90
5429;DHT22;2737;52.386;9.980;2022-11-20T13:54:53;1.40;99.90
5429;DHT22;2737;52.386;9.980;2022-11-20T13:57:47;1.50;99.90
5429;DHT22;2737;52.386;9.980;2022-11-20T14:00:19;1.50;99.90
5429;DHT22;2737;52.386;9.980;2022-11-20T14:02:58;1.50;99.90
5429;DHT22;2737;52.386;9.980;2022-11-20T14:05:26;1.50;99.90
5429;DHT22;2737;52.386;9.980;2022-11-20T14:07:53;1.50;99.90
5429;DHT22;2737;52.386;9.980;2022-11-20T14:10:23;1.50;99.90
5429;DHT22;2737;52.386;9.980;2022-11-20T14:12:51;1.50;99.90
5429;DHT22;2737;52.386;9.980;2022-11-20T14:15:27;1.50;99.90
5429;DHT22;2737;52.386;9.980;2022-11-20T14:17:54;1.50;99.90
5429;DHT22;2737;52.386;9.980;2022-11-20T14:20:24;1.50;99.90
5429;DHT22;2737;52.386;9.980;2022-11-20T14:22:53;1.40;99.90
5429;DHT22;2737;52.386;9.980;2022-11-20T14:25:22;1.40;99.90
5429;DHT22;2737;52.386;9.980;2022-11-20T14:27:56;1.40;99.90
5429;DHT22;2737;52.386;9.980;2022-11-20T14:30:25;1.40;99.90
5429;DHT22;2737;52.386;9.980;2022-11-20T14:32:54;1.30;99.90
5429;DHT22;2737;52.386;9.980;2022-11-20T14:35:27;1.30;99.90
5429;DHT22;2737;52.386;9.980;2022-11-20T14:37:55;1.30;99.90
5429;DHT22;2737;52.386;9.980;2022-11-20T14:40:27;1.30;99.90
5429;DHT22;2737;52.386;9.980;2022-11-20T14:42:57;1.30;99.90
5429;DHT22;2737;52.386;9.980;2022-11-20T14:45:25;1.30;99.90
5429;DHT22;2737;52.386;9.980;2022-11-20T14:47:54;1.30;99.90
5429;DHT22;2737;52.386;9.980;2022-11-20T14:50:25;1.30;99.90
5429;DHT22;2737;52.386;9.980;2022-11-20T14:52:54;1.20;99.90
5429;DHT22;2737;52.386;9.980;2022-11-20T14:55:30;1.20;99.90
5429;DHT22;2737;52.386;9.980;2022-11-20T14:58:01;1.20;99.90
5429;DHT22;2737;52.386;9.980;2022-11-20T15:00:29;1.10;99.90
5429;DHT22;2737;52.386;9.980;2022-11-20T15:02:57;1.00;99.90
5429;DHT22;2737;52.386;9.980;2022-11-20T15:05:25;1.00;99.90
5429;DHT22;2737;52.386;9.980;2022-11-20T15:08:06;1.00;99.90
5429;DHT22;2737;52.386;9.980;2022-11-20T15:10:34;0.90;99.90
5429;DHT22;2737;52.386;9.980;2022-11-20T15:13:06;0.80;99.90
5429;DHT22;2737;52.386;9.980;2022-11-20T15:15:45;0.70;99.90
5429;DHT22;2737;52.386;9.980;2022-11-20T15:18:14;0.80;99.90
5429;DHT22;2737;52.386;9.980;2022-11-20T15:20:42;0.80;99.90
5429;DHT22;2737;52.386;9.980;2022-11-20T15:23:11;0.80;99.90
5429;DHT22;2737;52.386;9.980;2022-11-20T15:25:39;0.70;99.90
5429;DHT22;2737;52.386;9.980;2022-11-20T15:28:16;0.60;99.90
5429;DHT22;2737;52.386;9.980;2022-11-20T15:30:43;0.50;99.90
5429;DHT22;2737;52.386;9.980;2022-11-20T15:33:11;0.60;99.90
5429;DHT22;2737;52.386;9.980;2022-11-20T15:35:38;0.70;99.90
5429;DHT22;2737;52.386;9.980;2022-11-20T15:38:06;0.60;99.90
5429;DHT22;2737;52.386;9.980;2022-11-20T15:40:33;0.60;99.90
5429;DHT22;2737;52.386;9.980;2022-11-20T15:43:00;0.50;99.90
5429;DHT22;2737;52.386;9.980;2022-11-20T15:45:35;0.40;99.90
5429;DHT22;2737;52.386;9.980;2022-11-20T15:48:04;0.40;99.90
5429;DHT22;2737;52.386;9.980;2022-11-20T15:50:36;0.40;99.90
5429;DHT22;2737;52.386;9.980;2022-11-20T15:53:04;0.40;99.90
5429;DHT22;2737;52.386;9.980;2022-11-20T15:55:31;0.40;99.90
5429;DHT22;2737;52.386;9.980;2022-11-20T15:57:58;0.40;99.90
5429;DHT22;2737;52.386;9.980;2022-11-20T16:00:25;0.40;99.90
5429;DHT22;2737;52.386;9.980;2022-11-20T16:02:53;0.40;99.90
5429;DHT22;2737;52.386;9.980;2022-11-20T16:05:21;0.30;99.90
5429;DHT22;2737;52.386;9.980;2022-11-20T16:07:50;0.40;99.90
5429;DHT22;2737;52.386;9.980;2022-11-20T16:10:17;0.30;99.90
5429;DHT22;2737;52.386;9.980;2022-11-20T16:12:44;0.10;99.90
5429;DHT22;2737;52.386;9.980;2022-11-20T16:15:29;0.10;99.90
5429;DHT22;2737;52.386;9.980;2022-11-20T16:18:18;0.10;99.90
5429;DHT22;2737;52.386;9.980;2022-11-20T16:20:47;0.10;99.90
5429;DHT22;2737;52.386;9.980;2022-11-20T16:23:14;0.10;99.90
5429;DHT22;2737;52.386;9.980;2022-11-20T16:25:42;0.00;99.90
5429;DHT22;2737;52.386;9.980;2022-11-20T16:28:10;0.00;99.90
5429;DHT22;2737;52.386;9.980;2022-11-20T16:30:38;0.00;99.90
5429;DHT22;2737;52.386;9.980;2022-11-20T16:33:09;-0.10;99.90
5429;DHT22;2737;52.386;9.980;2022-11-20T16:35:38;0.00;99.90